Portada
METAR-TAF:

METAR-TAF

Aeroports :

Curaçao, Antilles Neerlandeses

latitud: 12-12N, longitud: 068-58W, altitud: 9 m

Observació

L'informe es va fer fa 1 hora i 8 minuts, a les 10:00 UTC
Vent 4 kt del Sud-Est
Temperatura 25°C
Humitat 89%
Pressió 1012 hPa
Visibilitat 10 km o més

METAR: TNCC 151000Z AUTO 13004KT 9999 NCD 25/23 Q1012 NOSIG

Hora: 07:08 (11:08 UTC)

Pronòstic

L'informe es va fer fa 7 hores i 28 minuts, a les 03:40 UTC
Pronòstic vàlid del 15 a les 06 UTC al 16 a les 06 UTC
Vent 6 kt del Est/Sud-Est
Visibilitat 10 km o més
Núvols disperses a una alçada de 1600 ft
Temporalment
l' 15 a les 06 UTC al 15 a les 09 UTC
Cel ennuvolat a una alçada de 1400 ft
Temporalment
l' 15 a les 16 UTC al 15 a les 22 UTC
Vent 10 kt del Est amb ràfegues de 20 kt

TAF: TNCC 150340Z 1506/1606 12006KT 9999 SCT016 TEMPO 1506/1509 BKN014 TEMPO 1516/1522 10010G20KT

Observacions i pronòstics meteorològics de més de 4000 aeroports (METAR i TAF).

Les estacions disponibles són els punts grocs i vermells al mapa.

Posi el ratolí al punt desitjat per veure el nom de l'estació.

Feu clic per veure les observacions i els pronòstics meteorològics.

Per canviar el mapa: feu clic els botons verds amb una creu de color negre per apropar; al botó verd amb un guió per allunyar la imatge; o en les fletxes verdes per a mapes adjacents.


METAR-TAF: